createdAt,value
2018-02-16T00:01:29.638Z,9.97
2018-02-16T00:03:56.247Z,9.67
2018-02-16T00:06:22.847Z,11.40
2018-02-16T00:08:49.456Z,10.93
2018-02-16T00:11:16.064Z,11.40
2018-02-16T00:13:42.667Z,10.70
2018-02-16T00:16:09.267Z,11.53
2018-02-16T00:18:35.889Z,12.10
2018-02-16T00:21:02.507Z,12.10
2018-02-16T00:23:29.164Z,11.80
2018-02-16T00:25:55.782Z,11.63
2018-02-16T00:28:22.384Z,11.70
2018-02-16T00:30:48.979Z,12.40
2018-02-16T00:33:15.592Z,13.00
2018-02-16T00:35:42.262Z,13.07
2018-02-16T00:38:08.847Z,12.03
2018-02-16T00:40:35.456Z,12.30
2018-02-16T00:43:02.083Z,11.13
2018-02-16T00:45:28.652Z,11.70
2018-02-16T00:47:56.115Z,12.30
2018-02-16T00:50:22.714Z,11.83
2018-02-16T00:52:49.311Z,11.03
2018-02-16T00:55:15.924Z,12.30
2018-02-16T00:57:42.543Z,11.33
2018-02-16T01:00:09.126Z,11.53
2018-02-16T01:02:35.742Z,11.03
2018-02-16T01:05:02.376Z,12.20
2018-02-16T01:07:28.930Z,12.17
2018-02-16T01:09:55.539Z,12.00
2018-02-16T01:12:22.130Z,11.17
2018-02-16T01:14:48.730Z,11.60
2018-02-16T01:17:15.339Z,11.80
2018-02-16T01:19:41.939Z,11.50
2018-02-16T01:22:08.538Z,11.20
2018-02-16T01:24:35.156Z,11.30
2018-02-16T01:27:01.751Z,12.17
2018-02-16T01:29:28.352Z,11.30
2018-02-16T01:31:54.976Z,11.73
2018-02-16T01:34:21.601Z,10.40
2018-02-16T01:36:48.200Z,11.50
2018-02-16T01:39:14.830Z,11.23
2018-02-16T01:41:41.408Z,11.10
2018-02-16T01:44:08.017Z,10.77
2018-02-16T01:46:34.652Z,10.33
2018-02-16T01:49:01.281Z,10.57
2018-02-16T01:51:27.924Z,10.90
2018-02-16T01:53:54.531Z,9.97
2018-02-16T01:56:21.132Z,10.43
2018-02-16T01:58:47.731Z,9.47
2018-02-16T02:01:14.341Z,9.60
2018-02-16T02:03:40.940Z,10.43
2018-02-16T02:06:07.538Z,10.03
2018-02-16T02:08:34.144Z,9.57
2018-02-16T02:11:00.739Z,9.80
2018-02-16T02:13:27.336Z,9.27
2018-02-16T02:15:53.946Z,9.10
2018-02-16T02:18:20.538Z,9.30
2018-02-16T02:20:47.132Z,9.03
2018-02-16T02:23:13.742Z,9.20
2018-02-16T02:25:40.337Z,9.13
2018-02-16T02:28:06.928Z,8.47
2018-02-16T02:30:33.548Z,9.10
2018-02-16T02:33:00.139Z,9.10
2018-02-16T02:35:26.731Z,8.60
2018-02-16T02:37:53.348Z,8.67
2018-02-16T02:40:19.939Z,8.90
2018-02-16T02:42:46.532Z,8.03
2018-02-16T02:45:13.165Z,8.80
2018-02-16T02:47:39.795Z,9.33
2018-02-16T02:50:07.031Z,9.83
2018-02-16T02:52:33.644Z,9.77
2018-02-16T02:55:00.236Z,8.77
2018-02-16T02:57:26.828Z,8.57
2018-02-16T02:59:53.456Z,9.20
2018-02-16T03:02:20.046Z,8.67
2018-02-16T03:04:46.654Z,9.23
2018-02-16T03:07:13.263Z,9.40
2018-02-16T03:09:39.855Z,8.00
2018-02-16T03:12:06.447Z,9.07
2018-02-16T03:14:33.056Z,8.90
2018-02-16T03:16:59.644Z,8.93
2018-02-16T03:19:26.240Z,9.07
2018-02-16T03:21:52.860Z,8.60
2018-02-16T03:24:19.452Z,8.20
2018-02-16T03:26:46.045Z,8.40
2018-02-16T03:29:12.648Z,8.73
2018-02-16T03:31:39.272Z,8.13
2018-02-16T03:34:05.863Z,8.20
2018-02-16T03:36:32.476Z,9.30
2018-02-16T03:38:59.072Z,8.70
2018-02-16T03:41:25.668Z,9.03
2018-02-16T03:43:52.296Z,8.40
2018-02-16T03:46:18.883Z,8.37
2018-02-16T03:48:45.479Z,8.30
2018-02-16T03:51:12.098Z,9.13
2018-02-16T03:53:38.675Z,8.47
2018-02-16T03:56:05.268Z,8.30
2018-02-16T03:58:31.871Z,7.90
2018-02-16T04:00:58.468Z,7.63
2018-02-16T04:03:25.064Z,7.80
2018-02-16T04:05:51.686Z,7.90
2018-02-16T04:08:18.283Z,7.80
2018-02-16T04:10:44.884Z,7.57
2018-02-16T04:13:11.500Z,7.93
2018-02-16T04:15:38.096Z,8.03
2018-02-16T04:18:04.701Z,7.43
2018-02-16T04:20:31.295Z,7.90
2018-02-16T04:22:57.887Z,8.27
2018-02-16T04:25:24.479Z,8.30
2018-02-16T04:27:51.104Z,7.70
2018-02-16T04:30:17.700Z,8.27
2018-02-16T04:32:44.296Z,8.63
2018-02-16T04:35:10.912Z,9.50
2018-02-16T04:37:37.512Z,8.17
2018-02-16T04:40:04.108Z,8.13
2018-02-16T04:42:30.723Z,8.27
2018-02-16T04:44:57.319Z,8.77
2018-02-16T04:47:23.920Z,8.33
2018-02-16T04:49:50.532Z,8.60
2018-02-16T04:52:17.128Z,8.00
2018-02-16T04:54:43.760Z,8.23
2018-02-16T04:57:10.368Z,8.50
2018-02-16T04:59:36.963Z,8.50
2018-02-16T05:02:03.559Z,9.03
2018-02-16T05:04:30.168Z,9.10
2018-02-16T05:06:56.782Z,9.27
2018-02-16T05:09:23.368Z,8.90
2018-02-16T05:11:49.983Z,9.07
2018-02-16T05:14:16.616Z,9.30
2018-02-16T05:16:43.216Z,9.97
2018-02-16T05:19:09.824Z,8.53
2018-02-16T05:21:36.417Z,9.00
2018-02-16T05:24:03.011Z,8.73
2018-02-16T05:26:29.611Z,8.30
2018-02-16T05:28:56.203Z,9.13
2018-02-16T05:31:22.839Z,8.93
2018-02-16T05:33:49.455Z,9.00
2018-02-16T05:36:16.047Z,8.27
2018-02-16T05:38:42.643Z,8.90
2018-02-16T05:41:09.251Z,9.10
2018-02-16T05:43:35.846Z,9.20
2018-02-16T05:46:02.444Z,8.67
2018-02-16T05:48:29.062Z,8.63
2018-02-16T05:50:55.655Z,8.90
2018-02-16T05:55:58.879Z,8.63
2018-02-16T05:58:25.483Z,8.50
2018-02-16T06:00:53.003Z,8.13
2018-02-16T06:03:19.628Z,7.87
2018-02-16T06:05:46.212Z,8.73
2018-02-16T06:08:12.802Z,8.07
2018-02-16T06:10:39.416Z,7.93
2018-02-16T06:13:06.008Z,8.50
2018-02-16T06:15:32.599Z,8.43
2018-02-16T06:17:59.215Z,8.20
2018-02-16T06:20:25.832Z,8.40
2018-02-16T06:22:52.433Z,8.87
2018-02-16T06:25:19.035Z,8.70
2018-02-16T06:27:45.643Z,8.30
2018-02-16T06:30:12.240Z,8.30
2018-02-16T06:32:38.847Z,8.73
2018-02-16T06:35:05.444Z,8.13
2018-02-16T06:37:32.040Z,8.50
2018-02-16T06:39:58.651Z,8.80
2018-02-16T06:42:25.249Z,8.23
2018-02-16T06:44:51.843Z,8.83
2018-02-16T06:47:18.451Z,8.20
2018-02-16T06:49:45.052Z,8.30
2018-02-16T06:52:11.645Z,8.40
2018-02-16T06:54:38.255Z,8.70
2018-02-16T06:57:04.858Z,8.20
2018-02-16T06:59:31.447Z,9.00
2018-02-16T07:01:58.064Z,8.60
2018-02-16T07:04:24.664Z,8.43
2018-02-16T07:06:51.255Z,8.77
2018-02-16T07:09:17.879Z,8.47
2018-02-16T07:11:44.473Z,9.30
2018-02-16T07:14:11.072Z,9.13
2018-02-16T07:16:38.013Z,8.50
2018-02-16T07:19:04.605Z,8.80
2018-02-16T07:21:31.200Z,9.17
2018-02-16T07:23:57.817Z,8.83
2018-02-16T07:26:24.412Z,8.90
2018-02-16T07:28:51.011Z,9.10
2018-02-16T07:31:17.624Z,8.90
2018-02-16T07:33:44.225Z,10.07
2018-02-16T07:36:10.823Z,8.80
2018-02-16T07:38:37.435Z,9.60
2018-02-16T07:41:04.027Z,8.80
2018-02-16T07:43:30.623Z,9.80
2018-02-16T07:45:57.244Z,9.10
2018-02-16T07:48:23.840Z,10.00
2018-02-16T07:50:50.435Z,9.17
2018-02-16T07:53:17.047Z,9.60
2018-02-16T07:55:43.652Z,9.80
2018-02-16T07:58:10.243Z,9.90
2018-02-16T08:00:36.860Z,8.70
2018-02-16T08:03:03.459Z,9.73
2018-02-16T08:05:30.048Z,9.53
2018-02-16T08:07:56.662Z,9.50
2018-02-16T08:10:23.276Z,9.70
2018-02-16T08:12:49.872Z,9.93
2018-02-16T08:15:16.802Z,9.87
2018-02-16T08:17:43.402Z,9.90
2018-02-16T08:20:10.004Z,9.53
2018-02-16T08:22:36.629Z,8.97
2018-02-16T08:25:03.219Z,10.07
2018-02-16T08:27:29.832Z,10.53
2018-02-16T08:29:56.435Z,9.13
2018-02-16T08:32:23.032Z,10.00
2018-02-16T08:34:49.633Z,9.23
2018-02-16T08:37:16.301Z,9.70
2018-02-16T08:39:42.893Z,10.90
2018-02-16T08:42:09.491Z,10.50
2018-02-16T08:44:36.110Z,10.70
2018-02-16T08:47:02.707Z,10.10
2018-02-16T08:49:29.311Z,9.73
2018-02-16T08:51:55.933Z,10.90
2018-02-16T08:54:22.530Z,10.50
2018-02-16T08:56:49.132Z,10.77
2018-02-16T08:59:15.745Z,10.43
2018-02-16T09:01:42.343Z,10.60
2018-02-16T09:04:08.971Z,10.90
2018-02-16T09:06:35.583Z,10.43
2018-02-16T09:09:02.179Z,10.33
2018-02-16T09:11:28.779Z,10.10
2018-02-16T09:13:55.395Z,10.63
2018-02-16T09:16:21.995Z,10.10
2018-02-16T09:18:48.591Z,10.87
2018-02-16T09:21:15.228Z,10.80
2018-02-16T09:23:41.827Z,11.70
2018-02-16T09:26:08.437Z,11.70
2018-02-16T09:28:35.036Z,11.90
2018-02-16T09:31:01.639Z,12.10
2018-02-16T09:33:28.239Z,11.93
2018-02-16T09:35:54.856Z,11.13
2018-02-16T09:38:21.456Z,12.07
2018-02-16T09:40:48.051Z,12.70
2018-02-16T09:43:14.694Z,14.60
2018-02-16T09:45:41.284Z,13.67
2018-02-16T09:48:07.882Z,12.70
2018-02-16T09:50:34.516Z,13.50
2018-02-16T09:53:01.096Z,12.33
2018-02-16T09:55:27.705Z,13.73
2018-02-16T09:57:54.315Z,12.47
2018-02-16T10:00:20.986Z,12.47
2018-02-16T10:02:47.589Z,13.43
2018-02-16T10:05:14.228Z,15.30
2018-02-16T10:07:40.823Z,14.83
2018-02-16T10:10:07.421Z,14.10
2018-02-16T10:12:34.031Z,13.10
2018-02-16T10:15:00.633Z,14.10
2018-02-16T10:17:27.232Z,12.30
2018-02-16T10:19:53.914Z,13.27
2018-02-16T10:22:20.533Z,10.20
2018-02-16T10:24:47.124Z,11.50
2018-02-16T10:27:13.736Z,11.30
2018-02-16T10:29:40.335Z,10.50
2018-02-16T10:32:06.938Z,11.73
2018-02-16T10:34:33.551Z,11.13
2018-02-16T10:37:00.155Z,11.87
2018-02-16T10:39:26.759Z,9.00
2018-02-16T10:41:53.364Z,8.60
2018-02-16T10:44:19.959Z,8.73
2018-02-16T10:46:46.569Z,7.53
2018-02-16T10:49:13.192Z,7.27
2018-02-16T10:51:39.785Z,5.80
2018-02-16T10:54:06.387Z,5.37
2018-02-16T10:56:32.987Z,5.70
2018-02-16T10:58:59.579Z,5.80
2018-02-16T11:01:26.171Z,5.03
2018-02-16T11:03:58.744Z,5.87
2018-02-16T11:06:31.043Z,5.73
2018-02-16T11:09:03.332Z,5.37
2018-02-16T11:11:30.039Z,5.90
2018-02-16T11:13:56.649Z,5.10
2018-02-16T11:16:23.259Z,4.23
2018-02-16T11:18:49.856Z,4.70
2018-02-16T11:21:16.453Z,5.00
2018-02-16T11:23:43.113Z,4.97
2018-02-16T11:26:09.659Z,4.90
2018-02-16T11:28:36.276Z,5.03
2018-02-16T11:31:02.962Z,4.60
2018-02-16T11:33:29.551Z,5.00
2018-02-16T11:35:56.139Z,4.90
2018-02-16T11:38:22.750Z,5.10
2018-02-16T11:40:49.347Z,5.43
2018-02-16T11:43:15.944Z,5.10
2018-02-16T11:45:42.560Z,6.00
2018-02-16T11:48:09.175Z,9.40
2018-02-16T11:50:35.771Z,19.40
2018-02-16T11:53:02.389Z,50.33
2018-02-16T11:55:28.983Z,41.40
2018-02-16T11:57:55.587Z,26.17
2018-02-16T12:00:22.195Z,6.07
2018-02-16T12:02:48.792Z,6.77
2018-02-16T12:05:15.395Z,7.60
2018-02-16T12:07:42.020Z,8.10
2018-02-16T12:10:08.607Z,7.17
2018-02-16T12:12:35.203Z,8.10
2018-02-16T12:15:01.808Z,4.90
2018-02-16T12:17:28.418Z,4.40
2018-02-16T12:19:55.007Z,4.33
2018-02-16T12:22:21.615Z,4.70
2018-02-16T12:24:48.213Z,4.70
2018-02-16T12:27:14.808Z,5.10
2018-02-16T12:29:41.428Z,6.27
2018-02-16T12:32:08.028Z,5.93
2018-02-16T12:34:34.625Z,6.00
2018-02-16T12:37:01.239Z,4.30
2018-02-16T12:39:27.855Z,4.60
2018-02-16T12:41:54.447Z,4.13
2018-02-16T12:44:21.060Z,3.70
2018-02-16T12:46:47.664Z,3.67
2018-02-16T12:49:14.275Z,3.93
2018-02-16T12:51:40.901Z,4.40
2018-02-16T12:54:07.499Z,5.60
2018-02-16T12:56:34.092Z,5.70
2018-02-16T12:59:00.691Z,5.57
2018-02-16T13:01:27.283Z,3.27
2018-02-16T13:03:53.905Z,4.47
2018-02-16T13:06:20.516Z,3.37
2018-02-16T13:08:47.116Z,2.57
2018-02-16T13:11:13.707Z,2.30
2018-02-16T13:13:40.330Z,3.37
2018-02-16T13:16:06.915Z,2.30
2018-02-16T13:18:33.509Z,2.60
2018-02-16T13:21:00.120Z,2.10
2018-02-16T13:23:26.711Z,2.70
2018-02-16T13:25:53.317Z,2.50
2018-02-16T13:28:19.912Z,2.67
2018-02-16T13:30:46.517Z,2.47
2018-02-16T13:33:13.107Z,2.73
2018-02-16T13:35:39.715Z,2.67
2018-02-16T13:38:06.318Z,2.57
2018-02-16T13:40:32.904Z,2.23
2018-02-16T13:42:59.511Z,2.30
2018-02-16T13:45:26.106Z,2.50
2018-02-16T13:47:52.698Z,2.97
2018-02-16T13:50:19.302Z,2.80
2018-02-16T13:52:45.896Z,2.60
2018-02-16T13:55:12.483Z,2.30
2018-02-16T13:57:39.096Z,2.43
2018-02-16T14:00:05.711Z,2.03
2018-02-16T14:02:32.355Z,2.67
2018-02-16T14:04:58.975Z,2.73
2018-02-16T14:07:25.566Z,2.60
2018-02-16T14:09:52.161Z,2.30
2018-02-16T14:12:18.792Z,2.60
2018-02-16T14:14:45.379Z,2.20
2018-02-16T14:17:11.972Z,2.50
2018-02-16T14:19:38.584Z,2.60
2018-02-16T14:22:05.182Z,2.10
2018-02-16T14:24:31.772Z,2.50
2018-02-16T14:26:58.431Z,2.40
2018-02-16T14:29:24.979Z,3.03
2018-02-16T14:31:51.576Z,2.90
2018-02-16T14:34:18.185Z,2.20
2018-02-16T14:36:44.776Z,3.50
2018-02-16T14:39:11.375Z,3.00
2018-02-16T14:41:37.991Z,3.67
2018-02-16T14:44:04.582Z,3.70
2018-02-16T14:46:31.181Z,4.00
2018-02-16T14:48:57.819Z,3.10
2018-02-16T14:51:24.408Z,3.00
2018-02-16T14:53:51.033Z,2.70
2018-02-16T14:56:17.619Z,2.80
2018-02-16T14:58:44.203Z,3.40
2018-02-16T15:01:10.792Z,3.30
2018-02-16T15:03:37.400Z,3.10
2018-02-16T15:06:03.987Z,3.00
2018-02-16T15:08:30.593Z,3.40
2018-02-16T15:10:57.207Z,3.00
2018-02-16T15:13:23.802Z,3.10
2018-02-16T15:15:50.395Z,2.90
2018-02-16T15:18:17.016Z,3.07
2018-02-16T15:20:43.615Z,3.03
2018-02-16T15:23:10.203Z,2.97
2018-02-16T15:25:36.820Z,4.10
2018-02-16T15:28:03.399Z,4.87
2018-02-16T15:30:29.983Z,3.90
2018-02-16T15:32:56.594Z,4.40
2018-02-16T15:35:23.194Z,3.50
2018-02-16T15:37:49.784Z,3.60
2018-02-16T15:40:16.393Z,3.87
2018-02-16T15:42:43.034Z,3.20
2018-02-16T15:45:09.612Z,3.17
2018-02-16T15:47:36.212Z,3.40
2018-02-16T15:50:02.809Z,3.00
2018-02-16T15:52:29.399Z,4.13
2018-02-16T15:54:56.012Z,3.60
2018-02-16T15:57:22.609Z,3.40
2018-02-16T15:59:49.264Z,2.80
2018-02-16T16:02:15.863Z,2.80
2018-02-16T16:04:42.447Z,3.87
2018-02-16T16:07:09.039Z,3.50
2018-02-16T16:09:35.643Z,3.50
2018-02-16T16:12:02.239Z,3.40
2018-02-16T16:14:28.821Z,3.47
2018-02-16T16:16:55.440Z,3.33
2018-02-16T16:19:22.032Z,3.37
2018-02-16T16:21:48.623Z,2.87
2018-02-16T16:24:15.224Z,3.20
2018-02-16T16:26:41.812Z,3.30
2018-02-16T16:29:08.399Z,2.70
2018-02-16T16:31:35.024Z,2.77
2018-02-16T16:34:01.691Z,2.40
2018-02-16T16:36:28.242Z,2.73
2018-02-16T16:38:54.847Z,2.70
2018-02-16T16:41:21.432Z,2.47
2018-02-16T16:43:48.034Z,2.90
2018-02-16T16:46:14.644Z,2.90
2018-02-16T16:48:42.220Z,2.73
2018-02-16T16:51:08.847Z,3.20
2018-02-16T16:53:35.455Z,2.50
2018-02-16T16:56:02.048Z,2.87
2018-02-16T16:58:28.646Z,3.07
2018-02-16T17:00:55.257Z,2.90
2018-02-16T17:03:21.848Z,2.93
2018-02-16T17:05:48.440Z,2.73
2018-02-16T17:08:15.064Z,3.10
2018-02-16T17:10:41.669Z,2.80
2018-02-16T17:13:08.287Z,2.80
2018-02-16T17:15:34.896Z,2.60
2018-02-16T17:18:01.500Z,2.97
2018-02-16T17:20:28.089Z,2.90
2018-02-16T17:22:54.699Z,2.60
2018-02-16T17:25:21.292Z,3.23
2018-02-16T17:27:47.900Z,3.40
2018-02-16T17:30:14.520Z,3.00
2018-02-16T17:32:41.121Z,3.57
2018-02-16T17:35:07.708Z,2.90
2018-02-16T17:37:34.319Z,3.13
2018-02-16T17:40:00.920Z,2.93
2018-02-16T17:42:27.516Z,3.20
2018-02-16T17:44:54.148Z,2.70
2018-02-16T17:47:20.745Z,2.30
2018-02-16T17:49:47.332Z,2.77
2018-02-16T17:52:13.960Z,2.97
2018-02-16T17:54:40.542Z,2.83
2018-02-16T17:57:07.136Z,2.63
2018-02-16T17:59:33.744Z,2.50
2018-02-16T18:02:00.341Z,3.00
2018-02-16T18:04:26.930Z,5.87
2018-02-16T18:06:53.548Z,4.50
2018-02-16T18:09:20.136Z,5.33
2018-02-16T18:11:46.736Z,5.17
2018-02-16T18:14:13.345Z,4.00
2018-02-16T18:16:39.940Z,3.47
2018-02-16T18:19:06.532Z,3.87
2018-02-16T18:21:33.135Z,3.63
2018-02-16T18:23:59.727Z,3.97
2018-02-16T18:26:26.386Z,4.20
2018-02-16T18:28:52.988Z,4.00
2018-02-16T18:31:19.583Z,4.20
2018-02-16T18:33:46.185Z,5.63
2018-02-16T18:36:12.803Z,5.83
2018-02-16T18:38:39.416Z,5.67
2018-02-16T18:41:06.011Z,5.37
2018-02-16T18:43:32.641Z,5.90
2018-02-16T18:45:59.219Z,5.90
2018-02-16T18:48:25.812Z,6.00
2018-02-16T18:50:52.421Z,7.97
2018-02-16T18:53:19.023Z,7.90
2018-02-16T18:55:45.628Z,7.90
2018-02-16T18:58:12.244Z,8.20
2018-02-16T19:00:38.848Z,7.73
2018-02-16T19:03:05.444Z,7.57
2018-02-16T19:05:32.047Z,6.73
2018-02-16T19:07:58.640Z,6.70
2018-02-16T19:10:25.244Z,7.50
2018-02-16T19:12:51.860Z,7.50
2018-02-16T19:15:18.465Z,7.57
2018-02-16T19:17:45.064Z,7.60
2018-02-16T19:20:11.706Z,7.53
2018-02-16T19:22:38.345Z,8.10
2018-02-16T19:25:04.939Z,8.00
2018-02-16T19:27:31.552Z,7.87
2018-02-16T19:29:58.147Z,8.13
2018-02-16T19:32:24.744Z,8.30
2018-02-16T19:34:51.347Z,7.20
2018-02-16T19:37:17.971Z,6.83
2018-02-16T19:39:44.640Z,7.60
2018-02-16T19:42:11.244Z,8.20
2018-02-16T19:44:37.843Z,8.50
2018-02-16T19:47:04.445Z,8.20
2018-02-16T19:49:31.062Z,8.10
2018-02-16T19:51:57.655Z,8.30
2018-02-16T19:54:24.251Z,7.70
2018-02-16T19:56:51.126Z,8.00
2018-02-16T19:59:17.720Z,7.27
2018-02-16T20:01:44.313Z,7.33
2018-02-16T20:04:10.926Z,7.00
2018-02-16T20:06:37.514Z,6.97
2018-02-16T20:09:04.107Z,7.00
2018-02-16T20:11:30.739Z,7.40
2018-02-16T20:13:57.332Z,7.97
2018-02-16T20:16:23.960Z,7.30
2018-02-16T20:18:50.577Z,6.90
2018-02-16T20:21:17.177Z,7.13
2018-02-16T20:23:43.772Z,7.37
2018-02-16T20:26:10.400Z,6.80
2018-02-16T20:28:37.006Z,7.10
2018-02-16T20:31:03.599Z,8.00
2018-02-16T20:33:30.207Z,7.70
2018-02-16T20:35:56.796Z,6.80
2018-02-16T20:38:23.400Z,6.90
2018-02-16T20:40:50.012Z,7.10
2018-02-16T20:43:16.612Z,7.37
2018-02-16T20:45:43.205Z,7.37
2018-02-16T20:48:09.835Z,8.63
2018-02-16T20:50:36.440Z,8.60
2018-02-16T20:53:03.048Z,8.53
2018-02-16T20:55:29.781Z,8.90
2018-02-16T20:57:56.427Z,8.40
2018-02-16T21:00:23.023Z,9.23
2018-02-16T21:02:49.632Z,8.33
2018-02-16T21:05:16.289Z,9.07
2018-02-16T21:07:42.879Z,10.10
2018-02-16T21:10:09.504Z,9.47
2018-02-16T21:12:36.096Z,10.07
2018-02-16T21:15:02.697Z,10.80
2018-02-16T21:17:29.320Z,9.90
2018-02-16T21:19:55.916Z,8.73
2018-02-16T21:22:22.539Z,8.37
2018-02-16T21:24:49.203Z,7.40
2018-02-16T21:27:15.805Z,8.20
2018-02-16T21:29:42.399Z,9.00
2018-02-16T21:32:09.020Z,8.53
2018-02-16T21:34:35.617Z,8.97
2018-02-16T21:37:02.216Z,8.20
2018-02-16T21:39:28.828Z,8.70
2018-02-16T21:41:55.426Z,7.50
2018-02-16T21:44:22.048Z,7.30
2018-02-16T21:46:48.656Z,9.67
2018-02-16T21:49:15.257Z,9.10
2018-02-16T21:51:41.852Z,6.17
2018-02-16T21:54:08.460Z,5.70
2018-02-16T21:56:35.043Z,6.00
2018-02-16T21:59:01.662Z,6.23
2018-02-16T22:01:28.264Z,6.10
2018-02-16T22:03:54.865Z,5.97
2018-02-16T22:06:21.460Z,7.10
2018-02-16T22:08:48.067Z,7.07
2018-02-16T22:11:14.660Z,6.80
2018-02-16T22:13:41.249Z,6.60
2018-02-16T22:16:07.892Z,6.47
2018-02-16T22:18:34.488Z,7.10
2018-02-16T22:21:01.085Z,6.80
2018-02-16T22:23:27.703Z,7.23
2018-02-16T22:25:54.297Z,6.70
2018-02-16T22:28:20.891Z,7.80
2018-02-16T22:30:47.508Z,6.93
2018-02-16T22:33:14.119Z,7.90
2018-02-16T22:35:40.721Z,7.57
2018-02-16T22:38:07.352Z,7.43
2018-02-16T22:40:33.947Z,7.33
2018-02-16T22:43:00.544Z,7.57
2018-02-16T22:45:27.155Z,7.83
2018-02-16T22:47:53.756Z,7.93
2018-02-16T22:50:20.348Z,7.97
2018-02-16T22:52:46.964Z,7.70
2018-02-16T22:55:13.572Z,7.60
2018-02-16T22:57:40.168Z,7.60
2018-02-16T23:00:06.783Z,8.00
2018-02-16T23:02:33.375Z,8.20
2018-02-16T23:04:59.990Z,8.17
2018-02-16T23:07:26.605Z,8.57
2018-02-16T23:09:53.195Z,7.67
2018-02-16T23:12:19.795Z,7.43
2018-02-16T23:14:46.403Z,8.00
2018-02-16T23:17:13.015Z,8.63
2018-02-16T23:19:39.612Z,7.97
2018-02-16T23:22:06.227Z,8.53
2018-02-16T23:24:32.840Z,7.60
2018-02-16T23:26:59.452Z,7.80
2018-02-16T23:29:26.049Z,7.80
2018-02-16T23:31:52.647Z,8.33
2018-02-16T23:34:19.239Z,8.33
2018-02-16T23:36:45.851Z,7.57
2018-02-16T23:39:12.443Z,8.00
2018-02-16T23:41:39.035Z,7.30
2018-02-16T23:44:05.633Z,8.30
2018-02-16T23:46:32.224Z,8.30
2018-02-16T23:48:58.816Z,7.77
2018-02-16T23:51:25.436Z,7.40
2018-02-16T23:53:52.036Z,8.10
2018-02-16T23:56:18.632Z,6.90
2018-02-16T23:58:45.245Z,6.70
